Terminal Aerodrome Forecast
Issued by NWS Greer, SC

Home | Current Version | Previous Version | Text Only | Print | Product List | Glossary On
Versions: 1 2 3 4 5 6 7 8 9 10 11 12 13 14 15 16 17
000
FTUS42 KGSP 271946 AAB
TAFAVL
TAF AMD
KAVL 271946Z 2720/2818 34012KT P6SM SCT120
      TEMPO 2720/2721 34015G20KT
     FM280200 35003KT P6SM FEW250
     FM281500 17006KT P6SM FEW250=

USA.gov is the U.S. government's official web portal to all federal, state and local government web resources and services.